ADDS METAR Data INFO
IDs: Format: Raw Decoded Include TAF

Data at: 0110 UTC 24 Jun 2018

KCMA 240055Z 22013KT 10SM CLR 22/14 A2981 RMK AO2 SLP101 T02220139
KCMA 232355Z 22010KT 10SM CLR 24/14 A2981 RMK AO2 SLP102 T02390144 10256 20211 58008
KCMA 232255Z 25009G14KT 220V280 10SM CLR 24/15 A2982 RMK AO2 SLP106 T02390150
KCMA 232155Z 26008KT 230V310 10SM CLR 25/15 A2983 RMK AO2 SLP108 T02500150
KCMA 232055Z 23011KT 10SM CLR 24/16 A2984 RMK AO2 SLP111 T02440156 58004
KCMA 231955Z 25009KT 10SM CLR 24/15 A2984 RMK AO2 SLP113 T02390150
KCMA 231855Z 26009KT 9SM FEW017 23/15 A2984 RMK AO2 SLP114 T02280150
KCMA 231831Z 27007KT 240V300 9SM FEW016 23/15 A2984 RMK AO2 T02280150
KCMA 231816Z 28006KT 9SM BKN015 22/15 A2984 RMK AO2 T02170150
KCMA 231755Z 30008KT 250V320 9SM OVC013 22/16 A2985 RMK AO2 SLP115 T02170156 10217 20161 51007
KCMA 231725Z 28005KT 7SM OVC014 20/15 A2984 RMK AO2 T02000150
KCMA 231655Z 27006KT 6SM HZ OVC015 20/14 A2984 RMK AO2 SLP113 T02000144
KCMA 231633Z 00000KT 6SM HZ OVC015 20/14 A2984 RMK AO2 T02000144
KCMA 231622Z 09004KT 5SM HZ OVC014 20/14 A2984 RMK AO2 T02000139
KCMA 231555Z 06003KT 6SM HZ OVC009 19/14 A2984 RMK AO2 SLP112 T01890139
KCMA 231455Z 06003KT 6SM HZ OVC009 18/14 A2982 RMK AO2 SLP107 T01830139 53012
KCMA 231355Z 04003KT 4SM HZ OVC005 17/14 A2981 RMK AO2 SLP103 T01670139
KCMA 231348Z AUTO 00000KT 4SM HZ OVC005 17/14 A2981 RMK AO2 T01670139
KCMA 231327Z AUTO 01004KT 3SM HZ OVC004 17/14 A2980 RMK AO2 T01670139
KCMA 231317Z AUTO 04003KT 2 1/2SM BR OVC004 16/14 A2980 RMK AO2 T01610139
KCMA 231255Z AUTO 03004KT 5SM BR OVC004 16/14 A2980 RMK AO2 SLP099 T01610139
KCMA 231155Z AUTO 09003KT 3SM BR OVC004 16/14 A2979 RMK AO2 SLP096 T01610139 10161 20150 55003
KCMA 231140Z 00000KT 4SM BR OVC003 16/14 A2979 RMK AO2 T01610139
KCMA 231128Z 09003KT 2 1/2SM BR OVC003 16/14 A2979 RMK AO2 T01610139
KCMA 231055Z 00000KT 4SM HZ OVC003 16/13 A2979 RMK AO2 SLP095 T01610133
KCMA 231017Z 00000KT 4SM HZ OVC004 16/13 A2979 RMK AO2 T01610133
KCMA 230955Z 00000KT 5SM HZ OVC005 16/13 A2979 RMK AO2 SLP097 T01610133
KCMA 230855Z 03003KT 6SM HZ OVC005 16/13 A2980 RMK AO2 SLP099 T01610133 56005
KCMA 230824Z 00000KT 6SM HZ OVC005 16/13 A2980 RMK AO2 T01610133
KCMA 230755Z 29004KT 5SM BR OVC003 16/13 A2980 RMK AO2 SLP099 T01560133 402280150
KCMA 230723Z 21003KT 5SM HZ BKN004 16/13 A2980 RMK AO2 T01560128
KCMA 230712Z 23004KT 7SM SCT004 15/12 A2981 RMK AO2 T01500122
KCMA 230655Z 21003KT 7SM CLR 15/12 A2981 RMK AO2 SLP101 T01500122
KCMA 230555Z 21003KT 8SM CLR 16/12 A2981 RMK AO2 SLP104 T01560122 10211 20156 51003
KCMA 230455Z 00000KT 8SM SCT007 17/13 A2981 RMK AO2 SLP103 T01670128
KCMA 230355Z VRB03KT 8SM OVC009 17/13 A2980 RMK AO2 SLP100 T01720133
KCMA 230255Z VRB03KT 8SM BKN009 17/13 A2979 RMK AO2 SLP097 T01720133 56005
KCMA 230243Z VRB03KT 8SM BKN009 17/13 A2980 RMK AO2 T01720133
KCMA 230155Z VRB04KT 9SM OVC010 18/13 A2980 RMK AO2 SLP099 T01780133
KCMA 230055Z 26008KT 10SM BKN012 19/14 A2980 RMK AO2 SLP099 T01940139
KCMA 222355Z 25008KT 10SM CLR 21/14 A2981 RMK AO2 SLP102 T02060139 10228 20194 56017
KCMA 222255Z 26009KT 10SM CLR 22/14 A2982 RMK AO2 SLP107 T02220144
KCMA 222155Z 24009KT 10SM SCT016 22/14 A2984 RMK AO2 SLP114 T02220144
KCMA 222103Z 25008KT 10SM SCT016 22/15 A2986 RMK AO2 T02220150
KCMA 222055Z 24008KT 10SM BKN014 22/15 A2986 RMK AO2 SLP119 T02220150 58017
KCMA 221955Z 23008KT 10SM OVC012 21/15 A2989 RMK AO2 SLP128 T02110150
KCMA 221855Z 25005KT 10SM OVC014 21/14 A2990 RMK AO2 SLP132 T02060144
KCMA 221755Z 14004KT 8SM OVC010 19/14 A2991 RMK AO2 SLP136 T01940144 10194 20167 58005
KCMA 221744Z 00000KT 7SM OVC010 19/14 A2991 RMK AO2 T01890144
KCMA 221655Z 00000KT 7SM OVC008 18/14 A2992 RMK AO2 SLP140 T01780139
KCMA 221648Z 00000KT 7SM OVC008 18/14 A2992 RMK AO2 T01780139
KCMA 221555Z 36003KT 5SM HZ OVC006 17/14 A2993 RMK AO2 SLP141 T01720139
KCMA 221455Z 00000KT 4SM HZ OVC005 17/14 A2992 RMK AO2 SLP141 T01670139 52009
KCMA 221355Z 00000KT 3SM BR OVC005 17/14 A2991 RMK AO2 SLP137 T01670139
KCMA 221352Z 00000KT 3SM BR OVC005 17/14 A2991 RMK AO2
KCMA 221316Z AUTO 00000KT 5SM HZ OVC004 17/14 A2990 RMK AO2 T01670139